Main page
METAR-TAF:

METAR-TAF

Airports :

Leeds Bradford Airport

Leeds, England

latitude: 53-52N, longitude: 001-39W, elevation: 208 m

Current weather observation

The report was made 16 minutes ago, at 05:20 UTC
Wind 8 kt from the West
Temperature 12°C
Humidity 88%
Pressure 1013 hPa
Visibility 10 km or more
Few clouds at a height of 1200 ft

METAR: EGNM 170520Z 28008KT 9999 FEW012 12/10 Q1013

Time: 06:36 (05:36 UTC)

Forecast

The report was made 6 hours and 40 minutes ago, at 22:56 UTC
Forecast valid from 17 at 00 UTC to 17 at 24 UTC
Wind 8 kt from the West
Visibility 10 km or more
Scattered clouds at a height of 2500 ft
Probability 30% :
Temporary
from 17 at 00 UTC to 17 at 03 UTC
Broken clouds at a height of 1200 ft
Probability 30% :
Temporary
from 17 at 11 UTC to 17 at 20 UTC
Visibility: 7000 m
rain showers

TAF: EGNM 162256Z 1700/1724 26008KT 9999 SCT025 PROB30 TEMPO 1700/1703 BKN012 PROB30 TEMPO 1711/1720 7000 SHRA

Weather observations and forecasts of more than 4000 airports (METAR and TAF reports).

The available stations are represented by yellow and red dots on the map.

Hover mouse over dot to see the name of the station.

Then click to see weather observations and forecasts.

To change the map : click on the green buttons with a black cross to zoom in, on the green button with a dash to zoom out, or on the green arrows for adjacent maps.


METAR-TAF: